sensor_id;sensor_type;location;lat;lon;timestamp;pressure;altitude;pressure_sealevel;temperature;humidity
52927;BME280;40783;49.710;8.842;2022-11-02T00:00:41;99582.47;;;10.41;100.00
52927;BME280;40783;49.710;8.842;2022-11-02T00:03:06;99578.25;;;10.29;100.00
52927;BME280;40783;49.710;8.842;2022-11-02T00:05:34;99580.78;;;10.40;100.00
52927;BME280;40783;49.710;8.842;2022-11-02T00:08:00;99575.97;;;10.34;100.00
52927;BME280;40783;49.710;8.842;2022-11-02T00:10:25;99571.50;;;10.24;100.00
52927;BME280;40783;49.710;8.842;2022-11-02T00:12:51;99577.66;;;10.35;100.00
52927;BME280;40783;49.710;8.842;2022-11-02T00:15:16;99577.13;;;10.41;100.00
52927;BME280;40783;49.710;8.842;2022-11-02T00:17:45;99571.75;;;10.41;100.00
52927;BME280;40783;49.710;8.842;2022-11-02T00:20:14;99574.59;;;10.30;100.00
52927;BME280;40783;49.710;8.842;2022-11-02T00:22:41;99569.94;;;10.32;100.00
52927;BME280;40783;49.710;8.842;2022-11-02T00:25:11;99573.44;;;10.42;100.00
52927;BME280;40783;49.710;8.842;2022-11-02T00:27:41;99567.56;;;10.29;100.00
52927;BME280;40783;49.710;8.842;2022-11-02T00:30:07;99571.22;;;10.28;100.00
52927;BME280;40783;49.710;8.842;2022-11-02T00:32:32;99570.41;;;10.17;100.00
52927;BME280;40783;49.710;8.842;2022-11-02T00:34:57;99572.13;;;10.08;100.00
52927;BME280;40783;49.710;8.842;2022-11-02T00:37:23;99570.09;;;10.20;100.00
52927;BME280;40783;49.710;8.842;2022-11-02T00:39:48;99571.09;;;10.19;100.00
52927;BME280;40783;49.710;8.842;2022-11-02T00:42:13;99582.19;;;10.24;100.00
52927;BME280;40783;49.710;8.842;2022-11-02T00:44:38;99571.78;;;10.21;100.00
52927;BME280;40783;49.710;8.842;2022-11-02T00:47:06;99563.34;;;10.26;100.00
52927;BME280;40783;49.710;8.842;2022-11-02T00:49:31;99575.91;;;10.16;100.00
52927;BME280;40783;49.710;8.842;2022-11-02T00:51:56;99564.19;;;10.27;100.00
52927;BME280;40783;49.710;8.842;2022-11-02T00:54:21;99563.78;;;10.21;100.00
52927;BME280;40783;49.710;8.842;2022-11-02T00:56:49;99559.13;;;10.23;100.00
52927;BME280;40783;49.710;8.842;2022-11-02T00:59:14;99562.78;;;10.22;100.00
52927;BME280;40783;49.710;8.842;2022-11-02T01:01:39;99567.84;;;10.25;100.00
52927;BME280;40783;49.710;8.842;2022-11-02T01:04:07;99565.03;;;10.27;100.00
52927;BME280;40783;49.710;8.842;2022-11-02T01:06:32;99565.34;;;10.14;100.00
52927;BME280;40783;49.710;8.842;2022-11-02T01:08:57;99562.78;;;10.32;100.00
52927;BME280;40783;49.710;8.842;2022-11-02T01:11:25;99560.75;;;10.34;100.00
52927;BME280;40783;49.710;8.842;2022-11-02T01:13:53;99555.59;;;10.33;100.00
52927;BME280;40783;49.710;8.842;2022-11-02T01:16:19;99558.25;;;10.33;100.00
52927;BME280;40783;49.710;8.842;2022-11-02T01:18:44;99552.09;;;10.32;100.00
52927;BME280;40783;49.710;8.842;2022-11-02T01:21:09;99552.09;;;10.32;100.00
52927;BME280;40783;49.710;8.842;2022-11-02T01:23:35;99552.38;;;10.29;100.00
52927;BME280;40783;49.710;8.842;2022-11-02T01:26:04;99554.59;;;10.34;100.00
52927;BME280;40783;49.710;8.842;2022-11-02T01:28:32;99541.66;;;10.39;100.00
52927;BME280;40783;49.710;8.842;2022-11-02T01:30:57;99540.78;;;10.38;100.00
52927;BME280;40783;49.710;8.842;2022-11-02T01:33:25;99538.25;;;10.37;100.00
52927;BME280;40783;49.710;8.842;2022-11-02T01:35:53;99547.00;;;10.39;100.00
52927;BME280;40783;49.710;8.842;2022-11-02T01:38:19;99534.59;;;10.38;100.00
52927;BME280;40783;49.710;8.842;2022-11-02T01:40:46;99550.91;;;10.45;100.00
52927;BME280;40783;49.710;8.842;2022-11-02T01:45:46;99553.88;;;10.42;100.00
52927;BME280;40783;49.710;8.842;2022-11-02T01:48:11;99546.25;;;10.47;100.00
52927;BME280;40783;49.710;8.842;2022-11-02T01:50:39;99547.81;;;10.49;100.00
52927;BME280;40783;49.710;8.842;2022-11-02T01:53:04;99542.47;;;10.49;100.00
52927;BME280;40783;49.710;8.842;2022-11-02T01:55:30;99555.09;;;10.57;100.00
52927;BME280;40783;49.710;8.842;2022-11-02T01:57:58;99551.94;;;10.62;100.00
52927;BME280;40783;49.710;8.842;2022-11-02T02:00:27;99552.47;;;10.47;100.00
52927;BME280;40783;49.710;8.842;2022-11-02T02:02:54;99541.88;;;10.56;100.00
52927;BME280;40783;49.710;8.842;2022-11-02T02:05:21;99547.22;;;10.56;100.00
52927;BME280;40783;49.710;8.842;2022-11-02T02:07:47;99545.84;;;10.51;100.00
52927;BME280;40783;49.710;8.842;2022-11-02T02:10:14;99554.16;;;10.48;100.00
52927;BME280;40783;49.710;8.842;2022-11-02T02:12:41;99553.41;;;10.56;100.00
52927;BME280;40783;49.710;8.842;2022-11-02T02:15:07;99543.63;;;10.65;100.00
52927;BME280;40783;49.710;8.842;2022-11-02T02:17:41;99538.91;;;10.59;100.00
52927;BME280;40783;49.710;8.842;2022-11-02T02:20:10;99540.19;;;10.54;100.00
52927;BME280;40783;49.710;8.842;2022-11-02T02:30:15;99536.81;;;10.52;100.00
52927;BME280;40783;49.710;8.842;2022-11-02T02:32:52;99534.84;;;10.54;100.00
52927;BME280;40783;49.710;8.842;2022-11-02T02:37:56;99531.47;;;10.52;100.00
52927;BME280;40783;49.710;8.842;2022-11-02T02:40:33;99530.47;;;10.53;100.00
52927;BME280;40783;49.710;8.842;2022-11-02T02:45:54;99535.59;;;10.65;100.00
52927;BME280;40783;49.710;8.842;2022-11-02T02:48:20;99533.91;;;10.64;100.00
52927;BME280;40783;49.710;8.842;2022-11-02T02:53:13;99519.25;;;10.68;100.00
52927;BME280;40783;49.710;8.842;2022-11-02T02:55:42;99514.31;;;10.73;100.00
52927;BME280;40783;49.710;8.842;2022-11-02T02:58:11;99507.38;;;10.80;100.00
52927;BME280;40783;49.710;8.842;2022-11-02T03:00:37;99510.25;;;10.69;100.00
52927;BME280;40783;49.710;8.842;2022-11-02T03:03:08;99517.41;;;10.50;100.00
52927;BME280;40783;49.710;8.842;2022-11-02T03:05:36;99517.88;;;10.64;100.00
52927;BME280;40783;49.710;8.842;2022-11-02T03:08:11;99519.06;;;10.79;100.00
52927;BME280;40783;49.710;8.842;2022-11-02T03:15:55;99524.56;;;10.78;100.00
52927;BME280;40783;49.710;8.842;2022-11-02T03:23:37;99507.75;;;10.86;100.00
52927;BME280;40783;49.710;8.842;2022-11-02T03:31:02;99509.91;;;10.82;100.00
52927;BME280;40783;49.710;8.842;2022-11-02T03:33:32;99512.63;;;10.72;100.00
52927;BME280;40783;49.710;8.842;2022-11-02T03:36:18;99513.91;;;10.68;100.00
52927;BME280;40783;49.710;8.842;2022-11-02T03:41:43;99506.59;;;10.70;100.00
52927;BME280;40783;49.710;8.842;2022-11-02T03:44:18;99504.91;;;10.69;100.00
52927;BME280;40783;49.710;8.842;2022-11-02T03:46:44;99503.50;;;10.65;100.00
52927;BME280;40783;49.710;8.842;2022-11-02T03:49:15;99498.47;;;10.62;100.00
52927;BME280;40783;49.710;8.842;2022-11-02T03:51:42;99498.66;;;10.78;100.00
52927;BME280;40783;49.710;8.842;2022-11-02T03:54:24;99506.34;;;10.63;100.00
52927;BME280;40783;49.710;8.842;2022-11-02T03:56:53;99503.31;;;10.76;100.00
52927;BME280;40783;49.710;8.842;2022-11-02T03:59:22;99508.84;;;10.65;100.00
52927;BME280;40783;49.710;8.842;2022-11-02T04:01:50;99515.56;;;10.79;100.00
52927;BME280;40783;49.710;8.842;2022-11-02T04:04:15;99515.00;;;10.75;100.00
52927;BME280;40783;49.710;8.842;2022-11-02T04:06:41;99520.59;;;10.82;100.00
52927;BME280;40783;49.710;8.842;2022-11-02T04:09:09;99524.19;;;10.91;100.00
52927;BME280;40783;49.710;8.842;2022-11-02T04:11:35;99523.44;;;10.98;100.00
52927;BME280;40783;49.710;8.842;2022-11-02T04:14:19;99533.13;;;10.99;100.00
52927;BME280;40783;49.710;8.842;2022-11-02T04:17:09;99534.31;;;10.97;100.00
52927;BME280;40783;49.710;8.842;2022-11-02T04:19:53;99546.13;;;10.94;100.00
52927;BME280;40783;49.710;8.842;2022-11-02T04:22:18;99549.47;;;11.06;100.00
52927;BME280;40783;49.710;8.842;2022-11-02T04:25:02;99551.44;;;11.04;100.00
52927;BME280;40783;49.710;8.842;2022-11-02T04:27:47;99558.19;;;11.08;100.00
52927;BME280;40783;49.710;8.842;2022-11-02T04:30:13;99566.25;;;11.17;100.00
52927;BME280;40783;49.710;8.842;2022-11-02T04:32:42;99573.31;;;11.18;100.00
52927;BME280;40783;49.710;8.842;2022-11-02T04:35:26;99562.47;;;11.19;100.00
52927;BME280;40783;49.710;8.842;2022-11-02T04:37:51;99560.22;;;11.14;100.00
52927;BME280;40783;49.710;8.842;2022-11-02T04:40:35;99570.25;;;11.12;100.00
52927;BME280;40783;49.710;8.842;2022-11-02T04:43:00;99571.19;;;11.21;100.00
52927;BME280;40783;49.710;8.842;2022-11-02T04:45:26;99568.63;;;11.20;100.00
52927;BME280;40783;49.710;8.842;2022-11-02T04:47:51;99570.19;;;11.40;100.00
52927;BME280;40783;49.710;8.842;2022-11-02T04:50:19;99566.97;;;11.37;100.00
52927;BME280;40783;49.710;8.842;2022-11-02T04:52:44;99566.03;;;11.46;100.00
52927;BME280;40783;49.710;8.842;2022-11-02T04:55:09;99563.84;;;11.41;100.00
52927;BME280;40783;49.710;8.842;2022-11-02T04:57:34;99569.28;;;11.32;100.00
52927;BME280;40783;49.710;8.842;2022-11-02T05:00:02;99578.22;;;11.40;100.00
52927;BME280;40783;49.710;8.842;2022-11-02T05:02:27;99573.25;;;11.46;100.00
52927;BME280;40783;49.710;8.842;2022-11-02T05:04:53;99576.91;;;11.45;100.00
52927;BME280;40783;49.710;8.842;2022-11-02T05:07:18;99573.94;;;11.48;100.00
52927;BME280;40783;49.710;8.842;2022-11-02T05:09:43;99558.94;;;11.55;100.00
52927;BME280;40783;49.710;8.842;2022-11-02T05:12:08;99560.75;;;11.54;100.00
52927;BME280;40783;49.710;8.842;2022-11-02T05:14:34;99561.44;;;11.56;100.00
52927;BME280;40783;49.710;8.842;2022-11-02T05:16:59;99570.09;;;11.32;100.00
52927;BME280;40783;49.710;8.842;2022-11-02T05:19:24;99582.97;;;11.47;100.00
52927;BME280;40783;49.710;8.842;2022-11-02T05:21:49;99575.31;;;11.52;100.00
52927;BME280;40783;49.710;8.842;2022-11-02T05:24:15;99582.97;;;11.47;100.00
52927;BME280;40783;49.710;8.842;2022-11-02T05:26:40;99584.94;;;11.45;100.00
52927;BME280;40783;49.710;8.842;2022-11-02T05:29:05;99590.00;;;11.48;100.00
52927;BME280;40783;49.710;8.842;2022-11-02T05:31:31;99599.81;;;11.57;100.00
52927;BME280;40783;49.710;8.842;2022-11-02T05:33:56;99597.72;;;11.51;100.00
52927;BME280;40783;49.710;8.842;2022-11-02T05:36:21;99604.78;;;11.52;100.00
52927;BME280;40783;49.710;8.842;2022-11-02T05:38:52;99600.19;;;11.62;100.00
52927;BME280;40783;49.710;8.842;2022-11-02T05:41:18;99609.13;;;11.53;100.00
52927;BME280;40783;49.710;8.842;2022-11-02T05:43:43;99604.53;;;11.63;100.00
52927;BME280;40783;49.710;8.842;2022-11-02T05:46:11;99595.81;;;11.61;100.00
52927;BME280;40783;49.710;8.842;2022-11-02T05:48:38;99607.91;;;11.65;100.00
52927;BME280;40783;49.710;8.842;2022-11-02T05:51:04;99605.47;;;11.54;100.00
52927;BME280;40783;49.710;8.842;2022-11-02T05:53:30;99610.81;;;11.54;100.00
52927;BME280;40783;49.710;8.842;2022-11-02T05:55:57;99602.91;;;11.52;100.00
52927;BME280;40783;49.710;8.842;2022-11-02T05:58:22;99609.91;;;11.63;100.00
52927;BME280;40783;49.710;8.842;2022-11-02T06:00:48;99615.78;;;11.67;100.00
52927;BME280;40783;49.710;8.842;2022-11-02T06:03:13;99621.97;;;11.67;100.00
52927;BME280;40783;49.710;8.842;2022-11-02T06:05:38;99625.81;;;11.65;100.00
52927;BME280;40783;49.710;8.842;2022-11-02T06:08:06;99632.47;;;11.61;100.00
52927;BME280;40783;49.710;8.842;2022-11-02T06:10:31;99635.91;;;11.53;100.00
52927;BME280;40783;49.710;8.842;2022-11-02T06:12:57;99640.13;;;11.55;100.00
52927;BME280;40783;49.710;8.842;2022-11-02T06:15:25;99638.44;;;11.54;100.00
52927;BME280;40783;49.710;8.842;2022-11-02T06:17:50;99648.72;;;11.59;100.00
52927;BME280;40783;49.710;8.842;2022-11-02T06:20:15;99648.00;;;11.57;100.00
52927;BME280;40783;49.710;8.842;2022-11-02T06:22:41;99661.84;;;11.52;100.00
52927;BME280;40783;49.710;8.842;2022-11-02T06:25:06;99658.44;;;11.60;100.00
52927;BME280;40783;49.710;8.842;2022-11-02T06:27:32;99663.47;;;11.63;100.00
52927;BME280;40783;49.710;8.842;2022-11-02T06:29:57;99661.78;;;11.62;100.00
52927;BME280;40783;49.710;8.842;2022-11-02T06:32:22;99664.53;;;11.70;100.00
52927;BME280;40783;49.710;8.842;2022-11-02T06:34:47;99660.41;;;11.58;100.00
52927;BME280;40783;49.710;8.842;2022-11-02T06:37:13;99674.50;;;11.60;100.00
52927;BME280;40783;49.710;8.842;2022-11-02T06:39:40;99675.25;;;11.70;100.00
52927;BME280;40783;49.710;8.842;2022-11-02T06:42:07;99670.81;;;11.61;100.00
52927;BME280;40783;49.710;8.842;2022-11-02T06:44:33;99674.72;;;11.67;100.00
52927;BME280;40783;49.710;8.842;2022-11-02T06:46:58;99681.00;;;11.76;100.00
52927;BME280;40783;49.710;8.842;2022-11-02T06:49:23;99677.09;;;11.52;100.00
52927;BME280;40783;49.710;8.842;2022-11-02T06:51:51;99681.59;;;11.51;100.00
52927;BME280;40783;49.710;8.842;2022-11-02T06:54:21;99684.13;;;11.53;100.00
52927;BME280;40783;49.710;8.842;2022-11-02T06:56:48;99682.44;;;11.52;100.00
52927;BME280;40783;49.710;8.842;2022-11-02T06:59:14;99690.78;;;11.49;100.00
52927;BME280;40783;49.710;8.842;2022-11-02T07:01:39;99694.34;;;11.39;100.00
52927;BME280;40783;49.710;8.842;2022-11-02T07:04:04;99700.31;;;11.33;100.00
52927;BME280;40783;49.710;8.842;2022-11-02T07:06:29;99695.53;;;11.27;100.00
52927;BME280;40783;49.710;8.842;2022-11-02T07:08:55;99701.69;;;11.37;100.00
52927;BME280;40783;49.710;8.842;2022-11-02T07:11:22;99708.38;;;11.51;100.00
52927;BME280;40783;49.710;8.842;2022-11-02T07:13:48;99718.34;;;11.31;100.00
52927;BME280;40783;49.710;8.842;2022-11-02T07:16:13;99711.91;;;11.52;100.00
52927;BME280;40783;49.710;8.842;2022-11-02T07:18:39;99724.41;;;11.61;100.00
52927;BME280;40783;49.710;8.842;2022-11-02T07:21:04;99726.09;;;11.62;100.00
52927;BME280;40783;49.710;8.842;2022-11-02T07:23:30;99725.44;;;11.68;100.00
52927;BME280;40783;49.710;8.842;2022-11-02T07:25:55;99737.81;;;11.79;100.00
52927;BME280;40783;49.710;8.842;2022-11-02T07:28:20;99735.56;;;11.75;100.00
52927;BME280;40783;49.710;8.842;2022-11-02T07:30:46;99742.53;;;11.67;100.00
52927;BME280;40783;49.710;8.842;2022-11-02T07:33:11;99736.88;;;11.70;100.00
52927;BME280;40783;49.710;8.842;2022-11-02T07:35:41;99739.53;;;11.70;100.00
52927;BME280;40783;49.710;8.842;2022-11-02T07:38:06;99738.78;;;11.60;100.00
52927;BME280;40783;49.710;8.842;2022-11-02T07:40:33;99744.16;;;11.60;100.00
52927;BME280;40783;49.710;8.842;2022-11-02T07:42:59;99748.28;;;11.72;100.00
52927;BME280;40783;49.710;8.842;2022-11-02T07:45:24;99756.47;;;11.71;100.00
52927;BME280;40783;49.710;8.842;2022-11-02T07:47:50;99758.09;;;11.82;100.00
52927;BME280;40783;49.710;8.842;2022-11-02T07:50:16;99760.84;;;11.90;100.00
52927;BME280;40783;49.710;8.842;2022-11-02T07:52:43;99761.47;;;11.84;100.00
52927;BME280;40783;49.710;8.842;2022-11-02T07:55:09;99770.78;;;11.80;100.00
52927;BME280;40783;49.710;8.842;2022-11-02T07:57:34;99773.19;;;11.83;100.00
52927;BME280;40783;49.710;8.842;2022-11-02T07:59:59;99778.22;;;11.86;100.00
52927;BME280;40783;49.710;8.842;2022-11-02T08:02:24;99778.03;;;11.97;100.00
52927;BME280;40783;49.710;8.842;2022-11-02T08:04:52;99785.91;;;11.99;100.00
52927;BME280;40783;49.710;8.842;2022-11-02T08:07:19;99785.19;;;11.79;100.00
52927;BME280;40783;49.710;8.842;2022-11-02T08:09:44;99779.31;;;11.93;100.00
52927;BME280;40783;49.710;8.842;2022-11-02T08:12:12;99780.31;;;11.92;100.00
52927;BME280;40783;49.710;8.842;2022-11-02T08:14:37;99783.13;;;12.00;100.00
52927;BME280;40783;49.710;8.842;2022-11-02T08:17:02;99787.88;;;12.07;100.00
52927;BME280;40783;49.710;8.842;2022-11-02T08:19:30;99787.88;;;12.07;100.00
52927;BME280;40783;49.710;8.842;2022-11-02T08:21:55;99786.19;;;11.96;100.00
52927;BME280;40783;49.710;8.842;2022-11-02T08:24:23;99793.06;;;12.08;100.00
52927;BME280;40783;49.710;8.842;2022-11-02T08:26:48;99797.78;;;11.96;100.00
52927;BME280;40783;49.710;8.842;2022-11-02T08:29:13;99795.53;;;12.01;100.00
52927;BME280;40783;49.710;8.842;2022-11-02T08:31:38;99795.69;;;12.18;100.00
52927;BME280;40783;49.710;8.842;2022-11-02T08:34:03;99796.09;;;11.95;100.00
52927;BME280;40783;49.710;8.842;2022-11-02T08:36:29;99791.25;;;12.09;100.00
52927;BME280;40783;49.710;8.842;2022-11-02T08:38:54;99794.63;;;12.11;100.00
52927;BME280;40783;49.710;8.842;2022-11-02T08:41:19;99791.53;;;12.06;100.00
52927;BME280;40783;49.710;8.842;2022-11-02T08:43:44;99795.44;;;12.11;100.00
52927;BME280;40783;49.710;8.842;2022-11-02T08:46:09;99802.28;;;12.06;100.00
52927;BME280;40783;49.710;8.842;2022-11-02T08:48:37;99791.00;;;12.02;100.00
52927;BME280;40783;49.710;8.842;2022-11-02T08:51:02;99807.06;;;12.02;100.00
52927;BME280;40783;49.710;8.842;2022-11-02T08:53:29;99800.03;;;12.01;100.00
52927;BME280;40783;49.710;8.842;2022-11-02T08:55:57;99798.91;;;12.04;100.00
52927;BME280;40783;49.710;8.842;2022-11-02T08:58:23;99804.81;;;11.97;100.00
52927;BME280;40783;49.710;8.842;2022-11-02T09:00:53;99794.09;;;11.97;100.00
52927;BME280;40783;49.710;8.842;2022-11-02T09:03:18;99797.50;;;11.99;100.00
52927;BME280;40783;49.710;8.842;2022-11-02T09:05:45;99800.28;;;12.08;100.00
52927;BME280;40783;49.710;8.842;2022-11-02T09:08:14;99802.72;;;12.19;100.00
52927;BME280;40783;49.710;8.842;2022-11-02T09:10:43;99801.28;;;12.25;100.00
52927;BME280;40783;49.710;8.842;2022-11-02T09:13:10;99801.88;;;12.19;100.00
52927;BME280;40783;49.710;8.842;2022-11-02T09:15:35;99806.25;;;12.20;100.00
52927;BME280;40783;49.710;8.842;2022-11-02T09:18:04;99802.72;;;12.19;100.00
52927;BME280;40783;49.710;8.842;2022-11-02T09:20:29;99802.19;;;12.15;100.00
52927;BME280;40783;49.710;8.842;2022-11-02T09:22:55;99804.66;;;12.09;100.00
52927;BME280;40783;49.710;8.842;2022-11-02T09:25:23;99792.84;;;12.20;100.00
52927;BME280;40783;49.710;8.842;2022-11-02T09:27:51;99797.59;;;12.26;100.00
52927;BME280;40783;49.710;8.842;2022-11-02T09:30:16;99798.13;;;12.29;100.00
52927;BME280;40783;49.710;8.842;2022-11-02T09:32:41;99814.91;;;12.31;100.00
52927;BME280;40783;49.710;8.842;2022-11-02T09:35:08;99803.09;;;12.24;100.00
52927;BME280;40783;49.710;8.842;2022-11-02T09:37:37;99814.38;;;12.46;100.00
52927;BME280;40783;49.710;8.842;2022-11-02T09:40:05;99810.09;;;12.53;100.00
52927;BME280;40783;49.710;8.842;2022-11-02T09:42:41;99821.41;;;12.65;100.00
52927;BME280;40783;49.710;8.842;2022-11-02T09:45:12;99818.78;;;12.73;100.00
52927;BME280;40783;49.710;8.842;2022-11-02T09:47:44;99820.75;;;12.89;100.00
52927;BME280;40783;49.710;8.842;2022-11-02T09:50:13;99817.50;;;13.04;100.00
52927;BME280;40783;49.710;8.842;2022-11-02T09:52:42;99818.56;;;13.11;100.00
52927;BME280;40783;49.710;8.842;2022-11-02T09:55:11;99820.28;;;13.20;100.00
52927;BME280;40783;49.710;8.842;2022-11-02T09:57:41;99823.22;;;13.09;100.00
52927;BME280;40783;49.710;8.842;2022-11-02T10:00:12;99835.41;;;13.21;100.00
52927;BME280;40783;49.710;8.842;2022-11-02T10:15:44;99839.91;;;13.21;100.00
52927;BME280;40783;49.710;8.842;2022-11-02T10:18:15;99829.72;;;13.25;100.00
52927;BME280;40783;49.710;8.842;2022-11-02T10:20:45;99825.66;;;13.20;100.00
52927;BME280;40783;49.710;8.842;2022-11-02T10:23:17;99839.41;;;13.17;100.00
52927;BME280;40783;49.710;8.842;2022-11-02T10:25:44;99827.06;;;13.33;100.00
52927;BME280;40783;49.710;8.842;2022-11-02T10:28:11;99828.84;;;13.50;100.00
52927;BME280;40783;49.710;8.842;2022-11-02T10:30:38;99826.91;;;13.61;100.00
52927;BME280;40783;49.710;8.842;2022-11-02T10:33:09;99835.28;;;13.58;100.00
52927;BME280;40783;49.710;8.842;2022-11-02T10:35:56;99821.56;;;13.69;100.00
52927;BME280;40783;49.710;8.842;2022-11-02T10:41:13;99832.34;;;13.86;100.00
52927;BME280;40783;49.710;8.842;2022-11-02T10:49:12;99838.72;;;13.76;100.00
52927;BME280;40783;49.710;8.842;2022-11-02T10:51:39;99836.00;;;13.68;100.00
52927;BME280;40783;49.710;8.842;2022-11-02T10:54:07;99844.34;;;13.57;100.00
52927;BME280;40783;49.710;8.842;2022-11-02T10:56:35;99839.66;;;13.59;98.87
52927;BME280;40783;49.710;8.842;2022-11-02T10:59:12;99840.19;;;13.71;100.00
52927;BME280;40783;49.710;8.842;2022-11-02T11:01:43;99832.00;;;13.72;100.00
52927;BME280;40783;49.710;8.842;2022-11-02T11:04:22;99838.72;;;13.85;100.00
52927;BME280;40783;49.710;8.842;2022-11-02T11:06:48;99840.41;;;13.77;100.00
52927;BME280;40783;49.710;8.842;2022-11-02T11:09:20;99845.97;;;13.84;98.57
52927;BME280;40783;49.710;8.842;2022-11-02T11:14:18;99853.84;;;13.77;95.57
52927;BME280;40783;49.710;8.842;2022-11-02T11:16:48;99854.78;;;13.60;93.97
52927;BME280;40783;49.710;8.842;2022-11-02T11:21:51;99850.53;;;13.31;96.54
52927;BME280;40783;49.710;8.842;2022-11-02T11:24:23;99850.84;;;13.28;98.19
52927;BME280;40783;49.710;8.842;2022-11-02T11:27:03;99847.31;;;13.45;95.82
52927;BME280;40783;49.710;8.842;2022-11-02T11:29:29;99843.28;;;13.49;96.15
52927;BME280;40783;49.710;8.842;2022-11-02T11:31:55;99834.59;;;13.56;98.77
52927;BME280;40783;49.710;8.842;2022-11-02T11:34:26;99837.56;;;13.44;97.45
52927;BME280;40783;49.710;8.842;2022-11-02T11:36:52;99835.47;;;13.38;95.74
52927;BME280;40783;49.710;8.842;2022-11-02T11:39:26;99827.81;;;13.43;94.93
52927;BME280;40783;49.710;8.842;2022-11-02T11:41:53;99828.84;;;13.24;95.46
52927;BME280;40783;49.710;8.842;2022-11-02T11:44:21;99818.75;;;13.18;94.39
52927;BME280;40783;49.710;8.842;2022-11-02T11:46:53;99813.59;;;13.25;96.97
52927;BME280;40783;49.710;8.842;2022-11-02T11:49:24;99804.50;;;13.26;92.98
52927;BME280;40783;49.710;8.842;2022-11-02T11:51:51;99805.56;;;13.33;92.54
52927;BME280;40783;49.710;8.842;2022-11-02T11:54:20;99826.50;;;13.47;91.12
52927;BME280;40783;49.710;8.842;2022-11-02T11:56:48;99821.81;;;13.49;92.20
52927;BME280;40783;49.710;8.842;2022-11-02T12:01:52;99815.31;;;13.34;98.13
52927;BME280;40783;49.710;8.842;2022-11-02T12:04:34;99812.38;;;13.45;94.93
52927;BME280;40783;49.710;8.842;2022-11-02T12:07:06;99806.72;;;13.57;91.72
52927;BME280;40783;49.710;8.842;2022-11-02T12:24:59;99801.78;;;13.87;89.10
52927;BME280;40783;49.710;8.842;2022-11-02T12:48:03;99767.41;;;13.56;90.02
52927;BME280;40783;49.710;8.842;2022-11-02T12:55:45;99795.28;;;13.55;88.03
52927;BME280;40783;49.710;8.842;2022-11-02T12:58:22;99805.34;;;13.53;87.66
52927;BME280;40783;49.710;8.842;2022-11-02T13:00:51;99793.25;;;13.48;89.11
52927;BME280;40783;49.710;8.842;2022-11-02T13:06:06;99768.91;;;13.50;87.63
52927;BME280;40783;49.710;8.842;2022-11-02T13:10:58;99776.63;;;13.45;88.66
52927;BME280;40783;49.710;8.842;2022-11-02T13:13:41;99779.75;;;13.40;92.91
52927;BME280;40783;49.710;8.842;2022-11-02T13:16:08;99779.75;;;13.40;88.48
52927;BME280;40783;49.710;8.842;2022-11-02T13:18:55;99781.47;;;13.41;92.15
52927;BME280;40783;49.710;8.842;2022-11-02T13:21:27;99771.44;;;13.52;91.98
52927;BME280;40783;49.710;8.842;2022-11-02T13:23:57;99776.13;;;13.49;91.12
52927;BME280;40783;49.710;8.842;2022-11-02T13:31:29;99774.47;;;13.57;87.08
52927;BME280;40783;49.710;8.842;2022-11-02T13:34:00;99778.16;;;13.56;86.71
52927;BME280;40783;49.710;8.842;2022-11-02T13:36:26;99766.75;;;13.54;86.64
52927;BME280;40783;49.710;8.842;2022-11-02T13:38:57;99766.06;;;13.52;82.16
52927;BME280;40783;49.710;8.842;2022-11-02T13:46:52;99771.75;;;13.48;86.85
52927;BME280;40783;49.710;8.842;2022-11-02T13:49:21;99770.06;;;13.47;90.67
52927;BME280;40783;49.710;8.842;2022-11-02T13:51:59;99762.19;;;13.46;88.42
52927;BME280;40783;49.710;8.842;2022-11-02T13:54:27;99765.38;;;13.49;85.53
52927;BME280;40783;49.710;8.842;2022-11-02T13:56:54;99754.38;;;13.34;88.06
52927;BME280;40783;49.710;8.842;2022-11-02T14:01:55;99758.38;;;13.30;93.14
52927;BME280;40783;49.710;8.842;2022-11-02T14:04:21;99767.31;;;13.39;91.51
52927;BME280;40783;49.710;8.842;2022-11-02T14:17:30;99747.78;;;13.20;92.46
52927;BME280;40783;49.710;8.842;2022-11-02T14:36:23;99764.22;;;13.17;89.99
52927;BME280;40783;49.710;8.842;2022-11-02T14:38:56;99762.53;;;13.16;91.33
52927;BME280;40783;49.710;8.842;2022-11-02T14:44:02;99752.59;;;13.17;90.88
52927;BME280;40783;49.710;8.842;2022-11-02T14:49:50;99743.38;;;13.11;91.46
52927;BME280;40783;49.710;8.842;2022-11-02T14:52:03;99744.31;;;13.02;90.69
52927;BME280;40783;49.710;8.842;2022-11-02T14:54:35;99733.91;;;12.99;90.65
52927;BME280;40783;49.710;8.842;2022-11-02T14:57:13;99742.22;;;12.87;91.06
52927;BME280;40783;49.710;8.842;2022-11-02T14:59:43;99744.06;;;12.87;89.93
52927;BME280;40783;49.710;8.842;2022-11-02T15:04:36;99749.28;;;12.88;96.24
52927;BME280;40783;49.710;8.842;2022-11-02T15:07:14;99741.09;;;12.98;92.99
52927;BME280;40783;49.710;8.842;2022-11-02T15:17:49;99741.47;;;12.77;100.00
52927;BME280;40783;49.710;8.842;2022-11-02T15:22:40;99740.44;;;12.70;100.00
52927;BME280;40783;49.710;8.842;2022-11-02T15:25:26;99744.75;;;12.63;100.00
52927;BME280;40783;49.710;8.842;2022-11-02T15:27:54;99741.69;;;12.57;100.00
52927;BME280;40783;49.710;8.842;2022-11-02T15:30:23;99742.00;;;12.54;100.00
52927;BME280;40783;49.710;8.842;2022-11-02T15:32:58;99744.00;;;12.52;100.00
52927;BME280;40783;49.710;8.842;2022-11-02T15:35:32;99737.78;;;12.52;100.00
52927;BME280;40783;49.710;8.842;2022-11-02T15:37:58;99731.84;;;12.40;100.00
52927;BME280;40783;49.710;8.842;2022-11-02T15:40:28;99732.75;;;12.30;100.00
52927;BME280;40783;49.710;8.842;2022-11-02T15:55:41;99728.41;;;12.29;100.00
52927;BME280;40783;49.710;8.842;2022-11-02T16:00:42;99735.03;;;12.17;100.00
52927;BME280;40783;49.710;8.842;2022-11-02T16:03:08;99731.28;;;12.10;100.00